createdAt,value
2023-02-22T00:02:27.231Z,-0.47
2023-02-22T00:06:31.202Z,-1.01
2023-02-22T00:10:34.435Z,-0.57
2023-02-22T00:14:37.813Z,-0.36
2023-02-22T00:18:42.629Z,-0.87
2023-02-22T00:22:48.128Z,-0.69
2023-02-22T00:26:52.711Z,-0.77
2023-02-22T00:30:55.686Z,-0.88
2023-02-22T00:35:00.542Z,-1.03
2023-02-22T00:39:04.105Z,-0.69
2023-02-22T00:43:08.009Z,-0.63
2023-02-22T00:47:12.668Z,-0.83
2023-02-22T00:51:17.888Z,-0.79
2023-02-22T00:55:24.868Z,-0.64
2023-02-22T00:59:28.349Z,-0.70
2023-02-22T01:03:32.839Z,-0.68
2023-02-22T01:07:37.391Z,-0.94
2023-02-22T01:11:41.846Z,-0.82
2023-02-22T01:15:45.550Z,-0.87
2023-02-22T01:19:49.092Z,-0.86
2023-02-22T01:23:55.405Z,-1.20
2023-02-22T01:28:00.139Z,-0.82
2023-02-22T01:32:03.774Z,-1.05
2023-02-22T01:36:11.678Z,-1.03
2023-02-22T01:40:20.611Z,-0.95
2023-02-22T01:44:29.622Z,-0.83
2023-02-22T01:48:39.277Z,-0.95
2023-02-22T01:52:42.912Z,-0.94
2023-02-22T01:56:52.797Z,-1.00
2023-02-22T02:00:57.740Z,-1.41
2023-02-22T02:05:02.157Z,-1.02
2023-02-22T02:09:11.332Z,-1.36
2023-02-22T02:13:16.960Z,-1.32
2023-02-22T02:17:22.296Z,-1.05
2023-02-22T02:21:50.225Z,-1.04
2023-02-22T02:26:18.759Z,-1.24
2023-02-22T02:30:52.670Z,-1.22
2023-02-22T02:35:02.843Z,-1.50
2023-02-22T02:39:12.059Z,-0.93
2023-02-22T02:43:22.584Z,-1.24
2023-02-22T02:47:33.814Z,-1.46
2023-02-22T02:51:48.913Z,-1.61
2023-02-22T02:55:58.346Z,-1.51
2023-02-22T03:00:22.956Z,-1.45
2023-02-22T03:04:49.166Z,-1.50
2023-02-22T03:09:04.539Z,-1.58
2023-02-22T03:13:14.847Z,-1.61
2023-02-22T03:17:24.283Z,-1.33
2023-02-22T03:21:34.328Z,-1.25
2023-02-22T03:25:45.744Z,-1.44
2023-02-22T03:29:51.110Z,-1.43
2023-02-22T03:34:00.176Z,-1.43
2023-02-22T03:38:05.273Z,-1.46
2023-02-22T03:42:15.133Z,-1.38
2023-02-22T03:46:22.603Z,-1.47
2023-02-22T03:50:37.697Z,-1.44
2023-02-22T03:54:44.525Z,-1.36
2023-02-22T03:58:50.851Z,-1.26
2023-02-22T04:02:54.697Z,-1.51
2023-02-22T04:07:03.726Z,-1.29
2023-02-22T04:11:07.660Z,-1.35
2023-02-22T04:15:20.177Z,-1.49
2023-02-22T04:19:26.369Z,-1.57
2023-02-22T04:23:34.741Z,-1.59
2023-02-22T04:27:38.313Z,-1.57
2023-02-22T04:31:52.955Z,-1.33
2023-02-22T04:35:58.017Z,-1.54
2023-02-22T04:40:02.132Z,-1.72
2023-02-22T04:44:08.905Z,-1.46
2023-02-22T04:48:15.957Z,-1.67
2023-02-22T04:52:28.221Z,-1.49
2023-02-22T04:56:32.042Z,-1.69
2023-02-22T05:00:36.166Z,-1.75
2023-02-22T05:04:45.565Z,-1.35
2023-02-22T05:08:53.455Z,-1.36
2023-02-22T05:13:00.108Z,-1.84
2023-02-22T05:17:19.273Z,-1.98
2023-02-22T05:21:24.922Z,-2.01
2023-02-22T05:25:28.917Z,-2.02
2023-02-22T05:29:32.873Z,-1.79
2023-02-22T05:33:36.929Z,-1.59
2023-02-22T05:37:42.562Z,-1.71
2023-02-22T05:41:48.923Z,-1.73
2023-02-22T05:45:52.624Z,-1.91
2023-02-22T05:49:56.508Z,-1.68
2023-02-22T05:54:01.664Z,-1.62
2023-02-22T05:58:06.765Z,-1.52
2023-02-22T06:02:10.440Z,-1.75
2023-02-22T06:06:14.502Z,-1.82
2023-02-22T06:10:22.450Z,-1.54
2023-02-22T06:14:26.322Z,-1.68
2023-02-22T06:18:34.345Z,-2.08
2023-02-22T06:22:43.357Z,-1.81
2023-02-22T06:26:49.437Z,-1.69
2023-02-22T06:30:54.904Z,-1.79
2023-02-22T06:34:58.997Z,-2.09
2023-02-22T06:39:05.952Z,-2.11
2023-02-22T06:43:14.109Z,-2.06
2023-02-22T06:47:18.368Z,-1.75
2023-02-22T06:51:22.427Z,-1.68
2023-02-22T06:55:30.693Z,-2.07
2023-02-22T06:59:36.449Z,-1.97
2023-02-22T07:03:43.720Z,-1.59
2023-02-22T07:07:50.581Z,-1.65
2023-02-22T07:11:59.916Z,-1.65
2023-02-22T07:16:05.473Z,-1.26
2023-02-22T07:20:11.728Z,-1.22
2023-02-22T07:24:15.636Z,-1.11
2023-02-22T07:28:20.301Z,-1.12
2023-02-22T07:32:26.960Z,-0.82
2023-02-22T07:36:33.685Z,-0.99
2023-02-22T07:40:38.228Z,-0.90
2023-02-22T07:44:44.600Z,-0.61
2023-02-22T07:48:50.061Z,-0.19
2023-02-22T07:52:55.286Z,-0.02
2023-02-22T07:56:59.178Z,0.11
2023-02-22T08:01:03.863Z,0.18
2023-02-22T08:05:10.724Z,0.53
2023-02-22T08:09:13.774Z,0.81
2023-02-22T08:13:17.418Z,0.99
2023-02-22T08:17:20.644Z,0.88
2023-02-22T08:21:25.191Z,0.91
2023-02-22T08:25:31.353Z,1.14
2023-02-22T08:29:34.604Z,1.07
2023-02-22T08:33:37.622Z,1.14
2023-02-22T08:37:45.456Z,1.31
2023-02-22T08:41:48.514Z,1.55
2023-02-22T08:45:59.782Z,1.61
2023-02-22T08:50:03.215Z,1.64
2023-02-22T08:54:08.063Z,1.95
2023-02-22T08:58:11.114Z,2.17
2023-02-22T09:02:16.902Z,2.33
2023-02-22T09:06:19.970Z,2.86
2023-02-22T09:10:26.167Z,3.59
2023-02-22T09:14:29.611Z,4.08
2023-02-22T09:18:43.497Z,4.61
2023-02-22T09:22:48.470Z,5.09
2023-02-22T09:26:55.240Z,4.76
2023-02-22T09:30:58.290Z,5.63
2023-02-22T09:35:09.856Z,6.21
2023-02-22T09:39:13.127Z,6.60
2023-02-22T09:43:31.241Z,7.09
2023-02-22T09:47:41.172Z,7.36
2023-02-22T09:51:49.494Z,7.85
2023-02-22T09:55:54.156Z,7.51
2023-02-22T10:00:12.959Z,8.34
2023-02-22T10:04:22.111Z,8.43
2023-02-22T10:08:31.366Z,7.77
2023-02-22T10:12:39.505Z,7.69
2023-02-22T10:16:48.275Z,8.21
2023-02-22T10:20:55.790Z,8.32
2023-02-22T10:25:01.861Z,8.13
2023-02-22T10:29:07.695Z,8.62
2023-02-22T10:33:15.728Z,8.35
2023-02-22T10:37:27.393Z,8.76
2023-02-22T10:41:33.442Z,9.16
2023-02-22T10:45:37.260Z,8.78
2023-02-22T10:49:44.668Z,9.46
2023-02-22T10:53:57.370Z,9.67
2023-02-22T10:58:02.376Z,9.36
2023-02-22T11:02:16.229Z,10.18
2023-02-22T11:06:21.854Z,9.95
2023-02-22T11:10:38.658Z,10.46
2023-02-22T11:14:42.706Z,10.29
2023-02-22T11:18:46.072Z,11.10
2023-02-22T11:22:53.496Z,10.94
2023-02-22T11:27:00.900Z,11.20
2023-02-22T11:31:16.311Z,10.99
2023-02-22T11:35:25.026Z,10.85
2023-02-22T11:39:34.391Z,11.05
2023-02-22T11:43:37.797Z,11.25
2023-02-22T11:47:52.671Z,11.47
2023-02-22T11:52:08.019Z,11.91
2023-02-22T11:56:28.410Z,12.05
2023-02-22T12:00:47.336Z,11.77
2023-02-22T12:05:02.523Z,11.68
2023-02-22T12:09:15.741Z,11.56
2023-02-22T12:13:32.631Z,11.42
2023-02-22T12:17:54.289Z,11.62
2023-02-22T12:22:03.466Z,11.43
2023-02-22T12:26:11.848Z,11.76
2023-02-22T12:35:38.458Z,11.36
2023-02-22T12:39:53.720Z,11.63
2023-02-22T12:44:02.416Z,11.98
2023-02-22T12:48:22.644Z,11.33
2023-02-22T12:52:41.326Z,11.53
2023-02-22T12:56:57.070Z,11.55
2023-02-22T13:01:01.019Z,11.74
2023-02-22T13:05:05.632Z,11.64
2023-02-22T13:09:33.498Z,11.63
2023-02-22T13:13:43.092Z,11.60
2023-02-22T13:17:48.386Z,11.59
2023-02-22T13:21:54.596Z,11.43
2023-02-22T13:26:03.760Z,11.61
2023-02-22T13:30:18.290Z,11.84
2023-02-22T13:34:38.608Z,11.90
2023-02-22T13:39:03.779Z,11.88
2023-02-22T13:43:25.434Z,12.28
2023-02-22T13:47:50.924Z,12.37
2023-02-22T13:51:55.790Z,12.56
2023-02-22T13:56:00.573Z,12.87
2023-02-22T14:00:42.701Z,13.02
2023-02-22T14:04:45.997Z,12.94
2023-02-22T14:08:52.181Z,12.79
2023-02-22T14:12:55.681Z,12.75
2023-02-22T14:17:34.191Z,12.71
2023-02-22T14:21:37.840Z,12.39
2023-02-22T14:25:43.788Z,12.35
2023-02-22T14:29:52.016Z,12.16
2023-02-22T14:34:09.530Z,12.11
2023-02-22T14:38:19.594Z,11.90
2023-02-22T14:42:26.141Z,11.90
2023-02-22T14:46:31.664Z,11.89
2023-02-22T14:50:49.233Z,11.70
2023-02-22T14:55:00.495Z,11.78
2023-02-22T14:59:17.307Z,11.71
2023-02-22T15:03:29.359Z,11.54
2023-02-22T15:07:35.836Z,11.52
2023-02-22T15:11:38.708Z,11.50
2023-02-22T15:15:44.678Z,11.40
2023-02-22T15:19:48.686Z,11.25
2023-02-22T15:23:54.762Z,11.22
2023-02-22T15:28:02.577Z,11.25
2023-02-22T15:32:20.218Z,11.16
2023-02-22T15:36:28.360Z,11.17
2023-02-22T15:40:39.123Z,11.22
2023-02-22T15:44:43.978Z,11.24
2023-02-22T15:49:05.622Z,11.17
2023-02-22T15:53:15.668Z,10.98
2023-02-22T15:57:22.946Z,10.92
2023-02-22T16:01:27.240Z,11.11
2023-02-22T16:05:38.399Z,11.06
2023-02-22T16:09:41.214Z,11.05
2023-02-22T16:13:53.332Z,11.03
2023-02-22T16:18:02.429Z,10.96
2023-02-22T16:22:13.649Z,10.87
2023-02-22T16:26:26.713Z,10.93
2023-02-22T16:30:32.937Z,10.92
2023-02-22T16:34:37.068Z,10.62
2023-02-22T16:38:47.394Z,10.79
2023-02-22T16:42:51.554Z,10.71
2023-02-22T16:46:57.775Z,10.63
2023-02-22T16:51:04.087Z,10.73
2023-02-22T16:55:07.925Z,10.68
2023-02-22T16:59:14.244Z,10.61
2023-02-22T17:03:19.648Z,10.54
2023-02-22T17:07:29.867Z,10.64
2023-02-22T17:11:32.917Z,10.65
2023-02-22T17:15:37.461Z,10.40
2023-02-22T17:19:42.159Z,10.14
2023-02-22T17:23:46.025Z,10.07
2023-02-22T17:27:49.654Z,10.12
2023-02-22T17:31:53.764Z,10.03
2023-02-22T17:35:59.787Z,9.78
2023-02-22T17:40:03.124Z,9.96
2023-02-22T17:44:07.375Z,9.91
2023-02-22T17:48:11.136Z,10.06
2023-02-22T17:52:16.043Z,10.01
2023-02-22T17:56:20.356Z,9.93
2023-02-22T18:00:24.426Z,10.00
2023-02-22T18:04:27.695Z,9.66
2023-02-22T18:08:32.639Z,9.73
2023-02-22T18:12:35.472Z,9.85
2023-02-22T18:16:39.496Z,9.51
2023-02-22T18:20:44.472Z,9.32
2023-02-22T18:24:49.032Z,9.36
2023-02-22T18:28:53.869Z,9.43
2023-02-22T18:32:56.917Z,9.30
2023-02-22T18:37:01.047Z,9.18
2023-02-22T18:41:07.444Z,9.32
2023-02-22T18:45:12.045Z,9.15
2023-02-22T18:49:15.435Z,9.06
2023-02-22T18:53:18.589Z,9.11
2023-02-22T18:57:23.248Z,9.15
2023-02-22T19:01:26.754Z,9.11
2023-02-22T19:05:29.952Z,8.89
2023-02-22T19:09:33.316Z,8.84
2023-02-22T19:13:38.868Z,8.88
2023-02-22T19:17:42.973Z,9.10
2023-02-22T19:21:46.663Z,8.77
2023-02-22T19:25:53.116Z,8.86
2023-02-22T19:29:58.900Z,8.73
2023-02-22T19:34:04.684Z,9.06
2023-02-22T19:38:23.839Z,9.06
2023-02-22T19:42:28.604Z,8.95
2023-02-22T19:46:37.999Z,8.92
2023-02-22T19:50:49.314Z,8.91
2023-02-22T19:54:53.891Z,8.62
2023-02-22T19:58:59.604Z,8.65
2023-02-22T20:03:11.212Z,8.94
2023-02-22T20:07:14.703Z,8.98
2023-02-22T20:11:20.940Z,8.98
2023-02-22T20:15:25.032Z,8.92
2023-02-22T20:19:30.813Z,9.03
2023-02-22T20:23:35.199Z,8.88
2023-02-22T20:27:42.031Z,8.97
2023-02-22T20:31:49.979Z,9.03
2023-02-22T20:35:55.545Z,8.89
2023-02-22T20:40:00.423Z,8.95
2023-02-22T20:44:05.653Z,8.96
2023-02-22T20:48:09.548Z,9.08
2023-02-22T20:52:15.330Z,9.04
2023-02-22T20:56:24.795Z,8.81
2023-02-22T21:00:39.092Z,8.86
2023-02-22T21:04:43.068Z,9.01
2023-02-22T21:08:55.369Z,8.95
2023-02-22T21:13:03.702Z,8.80
2023-02-22T21:17:09.959Z,8.78
2023-02-22T21:21:15.551Z,8.87
2023-02-22T21:25:20.372Z,8.90
2023-02-22T21:29:23.612Z,8.98
2023-02-22T21:33:30.176Z,8.83
2023-02-22T21:37:34.966Z,9.01
2023-02-22T21:41:41.420Z,8.96
2023-02-22T21:45:44.592Z,8.99
2023-02-22T21:49:51.202Z,8.84
2023-02-22T21:53:56.464Z,8.96
2023-02-22T21:58:04.318Z,8.97
2023-02-22T22:02:07.812Z,8.91
2023-02-22T22:06:13.764Z,8.90
2023-02-22T22:10:24.701Z,8.92
2023-02-22T22:14:30.003Z,8.68
2023-02-22T22:18:33.417Z,8.74
2023-02-22T22:22:39.437Z,8.71
2023-02-22T22:26:44.111Z,8.61
2023-02-22T22:30:50.393Z,8.66
2023-02-22T22:34:56.638Z,8.81
2023-02-22T22:38:59.894Z,8.81
2023-02-22T22:43:06.261Z,8.78
2023-02-22T22:47:12.747Z,8.73
2023-02-22T22:51:18.834Z,8.87
2023-02-22T22:55:24.492Z,8.70
2023-02-22T22:59:28.253Z,8.82
2023-02-22T23:03:33.936Z,8.81
2023-02-22T23:07:37.489Z,8.71
2023-02-22T23:11:45.135Z,8.78
2023-02-22T23:15:49.031Z,8.69
2023-02-22T23:19:53.629Z,8.69
2023-02-22T23:23:58.578Z,8.69
2023-02-22T23:28:02.271Z,8.72
2023-02-22T23:32:06.136Z,8.78
2023-02-22T23:36:13.076Z,8.54
2023-02-22T23:40:18.911Z,8.56
2023-02-22T23:44:22.307Z,8.55
2023-02-22T23:48:28.175Z,8.51
2023-02-22T23:52:32.856Z,8.56
2023-02-22T23:56:38.135Z,8.14
